Augusto Pestana, Brazil
Current Conditions -  °F | °C
As of 7:00 AM on Saturday 25 Oct 2014 (Local Time) from SBSM Reporting Station
Haze Haze  
Wind Chill: 64°   Ceiling: 1400
Heat Index: 64°   Visibility: 2.5mi
Dew Point: 64°   Wind: 6mph
Humidity: 100%   Direction: 100°E
Pressure: 29.88"   Gusts: NA
Location:  28.52°S, 53.99°W
Report Text: SBSM 250900Z 10005KT 080V140 4000 BR SCT007 BKN014 18/18 Q1012
Loading
Personal Weather Stations






























Interactive Weather Map
Tropical Storm Tracking
New forecast layout! Learn more

10-Day Weather Forecast

Advertisements
Track Severe Weather on mobile